Time;durP1;ratioP1;P1;durP2;ratioP2;P2;SDS_P1;SDS_P2;PMS_P1;PMS_P2;Temp;Humidity;BMP_temperature;BMP_pressure;BME280_temperature;BME280_humidity;BME280_pressure;Samples;Min_cycle;Max_cycle;Signal;HPM_P1;HPM_P2
2022/06/20 00:02:48;;;;;;;3.53;0.65;;;20.90;95.20;;;;;;10212369;29;20055;-61
2022/06/20 00:07:51;;;;;;;3.87;0.60;;;20.90;95.40;;;;;;10208631;29;20115;-61
2022/06/20 00:12:53;;;;;;;4.47;0.68;;;20.80;95.40;;;;;;10213252;29;20063;-61
2022/06/20 00:17:55;;;;;;;5.90;0.47;;;20.80;95.70;;;;;;10211789;28;20062;-61
2022/06/20 00:22:57;;;;;;;2.80;0.55;;;20.70;96.00;;;;;;10209064;29;20055;-61
2022/06/20 00:27:59;;;;;;;4.10;0.40;;;20.60;96.20;;;;;;10208559;29;20055;-61
2022/06/20 00:33:02;;;;;;;2.97;0.55;;;20.60;96.20;;;;;;10209782;29;20126;-62
2022/06/20 00:38:06;;;;;;;2.45;0.40;;;20.50;96.20;;;;;;10209422;29;20129;-62
2022/06/20 00:43:14;;;;;;;3.67;0.50;;;20.40;96.30;;;;;;10209183;29;20118;-62
2022/06/20 00:48:38;;;;;;;1.17;0.50;;;20.30;96.50;;;;;;10189123;29;20055;-61
2022/06/20 00:53:47;;;;;;;3.25;0.40;;;20.20;96.30;;;;;;10209867;29;20055;-61
2022/06/20 00:58:57;;;;;;;1.50;0.40;;;20.10;96.30;;;;;;10207397;28;20119;-61
2022/06/20 01:04:05;;;;;;;1.85;0.50;;;20.00;96.20;;;;;;10213368;29;20051;-61
2022/06/20 01:09:09;;;;;;;3.25;0.88;;;19.90;96.40;;;;;;10208309;29;20063;-61
2022/06/20 01:14:27;;;;;;;4.88;0.85;;;19.80;96.60;;;;;;10206570;28;20060;-60
2022/06/20 01:19:52;;;;;;;1.38;0.30;;;19.70;96.70;;;;;;10203893;28;20055;-60
2022/06/20 01:25:06;;;;;;;2.92;0.40;;;19.60;96.60;;;;;;10206027;29;20059;-60
2022/06/20 01:30:09;;;;;;;4.32;0.43;;;19.50;96.70;;;;;;10203456;29;20059;-60
2022/06/20 01:37:23;;;;;;;1.85;0.30;;;19.50;97.10;;;;;;10211840;29;20494;-59
2022/06/20 01:40:35;;;;;;;3.58;0.30;;;19.50;97.20;;;;;;10206825;29;20064;-60
2022/06/20 01:50:58;;;;;;;3.20;0.60;;;19.40;97.90;;;;;;10205456;29;20066;-61
2022/06/20 01:56:02;;;;;;;3.97;0.55;;;19.30;98.20;;;;;;10211205;29;20054;-60
2022/06/20 02:01:05;;;;;;;4.30;0.57;;;19.30;98.40;;;;;;10204917;28;20056;-61
2022/06/20 02:06:10;;;;;;;6.18;0.80;;;19.30;98.30;;;;;;10207693;29;20047;-61
2022/06/20 02:11:23;;;;;;;6.55;0.50;;;19.20;98.60;;;;;;10206332;29;20055;-60
2022/06/20 02:16:28;;;;;;;3.00;0.40;;;19.20;98.70;;;;;;10201178;29;20682;-60
2022/06/20 02:21:33;;;;;;;4.72;0.70;;;19.20;99.60;;;;;;10203059;29;20059;-60
2022/06/20 02:26:37;;;;;;;4.95;0.70;;;19.20;99.90;;;;;;10206976;28;20055;-59
2022/06/20 02:31:39;;;;;;;5.80;0.73;;;19.10;99.90;;;;;;10203445;29;20478;-61
2022/06/20 02:36:41;;;;;;;5.95;0.50;;;19.30;99.90;;;;;;10206720;29;20115;-61
2022/06/20 02:41:46;;;;;;;6.93;0.50;;;19.40;99.90;;;;;;10208058;29;20118;-60
2022/06/20 02:46:50;;;;;;;4.90;0.50;;;19.50;99.90;;;;;;10205041;29;20509;-61
2022/06/20 02:51:55;;;;;;;3.90;0.60;;;19.60;99.90;;;;;;10203617;29;20066;-61
2022/06/20 02:57:10;;;;;;;7.88;0.63;;;19.80;99.90;;;;;;10203357;28;20056;-61
2022/06/20 03:02:15;;;;;;;5.45;0.40;;;19.70;99.90;;;;;;10202493;29;20526;-59
2022/06/20 03:07:26;;;;;;;5.22;0.50;;;19.70;99.90;;;;;;10189500;28;20059;-60
2022/06/20 03:12:28;;;;;;;1.17;0.40;;;19.60;99.90;;;;;;10204859;29;20063;-61
2022/06/20 03:17:29;;;;;;;2.80;0.43;;;19.50;99.90;;;;;;10212124;29;20055;-61
2022/06/20 03:22:35;;;;;;;1.83;0.30;;;19.50;99.90;;;;;;10203024;29;20071;-61
2022/06/20 03:27:39;;;;;;;4.03;0.77;;;19.50;99.90;;;;;;10207590;29;20410;-61
2022/06/20 03:32:41;;;;;;;3.22;0.40;;;19.40;99.90;;;;;;10208783;28;20051;-61
2022/06/20 03:37:43;;;;;;;1.88;0.30;;;19.30;99.90;;;;;;10215400;29;20073;-62
2022/06/20 03:42:46;;;;;;;3.08;0.40;;;19.30;99.90;;;;;;10209595;29;20059;-62
2022/06/20 03:48:13;;;;;;;4.57;0.70;;;19.30;99.90;;;;;;10213693;29;20051;-62
2022/06/20 03:53:24;;;;;;;4.00;0.70;;;19.20;99.90;;;;;;10210930;29;20623;-62
2022/06/20 03:59:05;;;;;;;5.18;0.40;;;19.20;99.90;;;;;;10210127;28;20477;-62
2022/06/20 04:04:16;;;;;;;1.63;0.43;;;19.10;99.90;;;;;;10213228;28;20048;-64
2022/06/20 04:15:04;;;;;;;1.48;0.40;;;19.00;99.90;;;;;;10204261;29;20716;-64
2022/06/20 04:20:10;;;;;;;2.70;0.60;;;19.10;99.90;;;;;;10205886;28;20126;-61
2022/06/20 04:25:24;;;;;;;1.13;0.40;;;19.10;99.90;;;;;;10215621;28;20119;-61
2022/06/20 04:30:46;;;;;;;2.28;0.60;;;19.10;99.90;;;;;;10214521;29;20055;-63
2022/06/20 04:36:23;;;;;;;0.93;0.40;;;19.20;99.90;;;;;;10211017;29;20052;-62
2022/06/20 04:41:49;;;;;;;2.15;0.60;;;19.20;99.90;;;;;;10210071;29;20059;-62
2022/06/20 04:47:13;;;;;;;2.53;0.40;;;19.20;99.90;;;;;;10206187;28;20059;-63
2022/06/20 04:52:21;;;;;;;1.20;0.35;;;18.90;99.90;;;;;;10208784;29;20059;-62
2022/06/20 04:57:26;;;;;;;2.60;0.50;;;18.70;99.90;;;;;;10202505;28;20059;-63
2022/06/20 05:02:28;;;;;;;4.15;0.70;;;18.80;99.90;;;;;;10208898;28;20055;-63
2022/06/20 05:07:34;;;;;;;3.90;0.50;;;18.90;99.90;;;;;;10204268;29;20122;-63
2022/06/20 05:12:43;;;;;;;0.90;0.40;;;19.00;99.90;;;;;;10209383;29;20066;-62
2022/06/20 05:17:47;;;;;;;4.97;0.57;;;19.00;99.90;;;;;;10211275;29;20051;-63
2022/06/20 05:22:58;;;;;;;6.75;0.70;;;19.10;99.90;;;;;;10210485;29;20063;-62
2022/06/20 05:28:10;;;;;;;2.28;0.60;;;19.20;99.90;;;;;;10209159;29;20047;-63
2022/06/20 05:33:29;;;;;;;4.10;0.75;;;19.20;99.90;;;;;;10202319;29;20114;-63
2022/06/20 05:39:00;;;;;;;3.85;0.50;;;19.30;99.90;;;;;;10200613;28;20115;-63
2022/06/20 05:44:04;;;;;;;3.53;0.43;;;19.20;99.90;;;;;;10189165;29;20141;-64
2022/06/20 05:49:16;;;;;;;2.15;0.38;;;19.30;99.90;;;;;;10207105;29;20061;-66
2022/06/20 05:54:21;;;;;;;4.22;0.60;;;19.30;99.90;;;;;;10209452;29;20059;-62
2022/06/20 05:59:26;;;;;;;5.50;0.60;;;19.30;99.90;;;;;;10195242;29;20063;-61
2022/06/20 06:04:38;;;;;;;7.82;1.15;;;19.40;99.90;;;;;;10209151;29;20410;-62
2022/06/20 06:09:59;;;;;;;3.65;0.70;;;19.40;99.90;;;;;;10206894;28;20066;-64
2022/06/20 06:15:30;;;;;;;3.60;1.13;;;19.40;99.90;;;;;;10207246;28;20086;-65
2022/06/20 06:20:32;;;;;;;1.92;0.63;;;19.30;99.90;;;;;;10186668;29;20121;-65
2022/06/20 06:25:36;;;;;;;3.83;1.00;;;19.30;99.90;;;;;;10208683;29;20087;-65
2022/06/20 06:31:05;;;;;;;3.72;0.55;;;19.30;99.90;;;;;;10201589;29;20166;-65
2022/06/20 06:36:11;;;;;;;3.45;0.60;;;19.20;99.90;;;;;;10208844;29;20137;-66
2022/06/20 06:41:24;;;;;;;2.35;0.52;;;19.00;99.90;;;;;;10188354;29;20199;-66
2022/06/20 06:46:34;;;;;;;2.75;0.65;;;18.90;99.90;;;;;;10209723;28;20058;-66
2022/06/20 06:51:50;;;;;;;3.25;0.85;;;19.00;99.90;;;;;;10209949;28;20122;-63
2022/06/20 06:57:00;;;;;;;3.80;1.10;;;18.90;99.90;;;;;;10182101;28;20051;-63
2022/06/20 07:02:05;;;;;;;4.10;0.63;;;19.00;99.90;;;;;;10210154;29;20085;-62
2022/06/20 07:07:24;;;;;;;5.65;0.60;;;19.00;99.90;;;;;;10204182;29;20521;-61
2022/06/20 07:12:48;;;;;;;6.25;1.27;;;19.00;99.90;;;;;;10214129;29;20107;-62
2022/06/20 07:18:02;;;;;;;2.83;0.80;;;19.00;99.90;;;;;;10213907;29;20649;-62
2022/06/20 07:23:12;;;;;;;2.42;0.80;;;19.00;99.90;;;;;;10210629;29;20454;-62
2022/06/20 07:28:35;;;;;;;3.10;0.88;;;19.00;99.90;;;;;;10213391;29;20052;-61
2022/06/20 07:33:44;;;;;;;2.70;0.70;;;19.00;99.90;;;;;;10209371;29;20063;-62
2022/06/20 07:39:22;;;;;;;3.78;0.90;;;19.20;99.90;;;;;;10194135;29;20491;-60
2022/06/20 07:45:01;;;;;;;2.53;0.93;;;19.20;99.90;;;;;;10195665;29;20478;-60
2022/06/20 07:50:10;;;;;;;1.58;0.90;;;19.30;99.90;;;;;;10196629;29;20495;-60
2022/06/20 07:55:23;;;;;;;6.57;1.33;;;19.40;99.90;;;;;;10210341;29;20144;-60
2022/06/20 08:00:29;;;;;;;2.85;1.08;;;19.30;99.90;;;;;;10208831;28;20090;-61
2022/06/20 08:05:40;;;;;;;3.22;0.77;;;19.40;99.90;;;;;;10209690;29;20070;-60
2022/06/20 08:10:51;;;;;;;4.03;0.90;;;19.50;99.90;;;;;;10212219;29;20125;-60
2022/06/20 08:16:02;;;;;;;4.72;0.73;;;19.50;99.90;;;;;;10205380;29;20051;-60
2022/06/20 08:21:30;;;;;;;2.65;0.50;;;19.40;99.90;;;;;;10207348;28;20088;-60
2022/06/20 08:26:43;;;;;;;2.63;0.60;;;19.40;99.90;;;;;;10210657;29;20099;-60
2022/06/20 08:31:49;;;;;;;1.70;0.70;;;19.30;99.90;;;;;;10208709;29;20051;-59
2022/06/20 08:37:02;;;;;;;2.85;0.70;;;19.10;99.90;;;;;;10210205;29;20585;-59
2022/06/20 08:42:13;;;;;;;2.40;0.60;;;19.00;99.90;;;;;;10204484;29;20160;-59
2022/06/20 08:47:33;;;;;;;2.10;0.45;;;18.60;99.90;;;;;;10196437;29;20129;-60
2022/06/20 08:53:12;;;;;;;1.90;0.80;;;18.60;99.90;;;;;;10206832;29;20059;-60
2022/06/20 08:58:46;;;;;;;0.60;0.47;;;18.60;99.90;;;;;;10214903;28;20063;-60
2022/06/20 09:03:55;;;;;;;0.50;0.30;;;18.50;99.90;;;;;;10179794;29;20114;-61
2022/06/20 09:09:08;;;;;;;0.73;0.40;;;18.50;99.90;;;;;;10207762;28;20060;-60
2022/06/20 09:14:40;;;;;;;1.08;0.20;;;18.20;99.90;;;;;;10199842;29;20510;-61
2022/06/20 09:20:00;;;;;;;0.25;0.20;;;18.00;99.90;;;;;;10210920;28;20132;-60
2022/06/20 09:25:35;;;;;;;0.82;0.20;;;18.10;99.90;;;;;;10210331;29;20057;-61
2022/06/20 09:30:55;;;;;;;0.22;0.20;;;18.20;99.90;;;;;;10183387;28;20122;-64
2022/06/20 09:36:29;;;;;;;1.20;0.17;;;18.10;99.90;;;;;;10205501;29;20555;-64
2022/06/20 09:41:39;;;;;;;0.60;0.17;;;18.10;99.90;;;;;;10189944;29;20060;-61
2022/06/20 09:47:08;;;;;;;0.50;0.35;;;18.00;99.90;;;;;;10204767;29;20067;-60
2022/06/20 09:53:08;;;;;;;0.30;0.20;;;17.80;99.90;;;;;;10210754;29;20052;-62
2022/06/20 09:58:34;;;;;;;0.43;0.30;;;17.80;99.90;;;;;;10084017;28;20055;-63
2022/06/20 10:03:42;;;;;;;0.65;0.30;;;17.70;99.90;;;;;;10206377;29;20110;-64
2022/06/20 10:09:08;;;;;;;0.40;0.30;;;17.70;99.90;;;;;;10206928;29;20105;-63
2022/06/20 10:14:33;;;;;;;0.50;0.45;;;17.50;99.90;;;;;;10208736;29;20055;-63
2022/06/20 10:19:56;;;;;;;5.40;0.50;;;17.40;99.90;;;;;;10206825;29;20055;-63
2022/06/20 10:25:09;;;;;;;1.05;0.70;;;17.10;99.90;;;;;;10204749;29;20055;-64
2022/06/20 10:30:48;;;;;;;0.88;0.55;;;17.00;99.90;;;;;;10205047;29;20059;-63
2022/06/20 10:36:21;;;;;;;1.17;0.70;;;16.90;99.90;;;;;;10202478;28;20058;-63
2022/06/20 10:42:17;;;;;;;0.30;0.30;;;17.00;99.90;;;;;;10204090;29;20173;-63
2022/06/20 10:47:30;;;;;;;0.82;0.43;;;16.90;99.90;;;;;;10206128;29;20060;-63
2022/06/20 10:53:04;;;;;;;2.95;0.40;;;17.10;99.90;;;;;;10206555;29;20067;-60
2022/06/20 10:58:43;;;;;;;0.40;0.30;;;17.00;99.90;;;;;;10199707;28;20048;-60
2022/06/20 11:04:09;;;;;;;0.30;0.20;;;17.00;99.90;;;;;;10207648;29;20059;-60
2022/06/20 11:09:26;;;;;;;0.50;0.30;;;16.80;99.90;;;;;;10201768;29;20051;-61
2022/06/20 11:14:28;;;;;;;0.28;0.10;;;17.00;99.90;;;;;;10202136;29;20055;-60
2022/06/20 11:19:48;;;;;;;0.30;0.10;;;16.90;99.90;;;;;;10206122;29;20581;-60
2022/06/20 11:25:14;;;;;;;1.35;0.10;;;16.90;99.90;;;;;;10199085;29;20106;-60
2022/06/20 11:30:36;;;;;;;0.43;0.10;;;16.80;99.90;;;;;;10204177;28;20517;-62
2022/06/20 11:35:56;;;;;;;0.10;0.10;;;16.60;99.90;;;;;;10210289;29;20059;-60
2022/06/20 11:41:10;;;;;;;1.67;0.20;;;16.30;99.90;;;;;;10210420;29;20054;-61
2022/06/20 11:46:30;;;;;;;0.47;0.10;;;16.10;99.90;;;;;;10206628;28;20051;-61
2022/06/20 11:51:56;;;;;;;3.03;0.10;;;16.00;99.90;;;;;;10199067;29;20093;-61
2022/06/20 11:57:13;;;;;;;0.10;0.10;;;16.00;99.90;;;;;;10196012;28;20070;-61
2022/06/20 12:02:33;;;;;;;2.92;0.17;;;16.10;99.90;;;;;;10214264;28;20529;-60
2022/06/20 12:07:41;;;;;;;0.17;0.00;;;16.30;99.90;;;;;;10210911;29;20058;-60
2022/06/20 12:13:11;;;;;;;0.22;0.20;;;16.50;99.90;;;;;;10212858;29;20048;-60
2022/06/20 12:18:19;;;;;;;0.00;0.00;;;16.50;99.90;;;;;;10206774;29;20126;-60
2022/06/20 12:23:33;;;;;;;0.50;0.20;;;16.50;99.90;;;;;;10217675;28;20589;-61
2022/06/20 12:28:44;;;;;;;0.20;0.03;;;16.70;99.90;;;;;;10218041;29;20059;-61
2022/06/20 12:33:53;;;;;;;0.88;0.13;;;16.70;99.90;;;;;;10213079;29;20063;-60
2022/06/20 12:39:21;;;;;;;0.40;0.13;;;16.70;99.90;;;;;;10209016;29;20059;-60
2022/06/20 12:44:48;;;;;;;3.08;0.10;;;16.70;99.90;;;;;;10215016;29;20055;-62
2022/06/20 12:50:19;;;;;;;0.10;0.10;;;16.60;99.90;;;;;;10211183;29;20511;-63
2022/06/20 12:55:32;;;;;;;0.20;0.10;;;16.70;99.90;;;;;;10212491;29;20052;-60
2022/06/20 13:00:50;;;;;;;0.20;0.10;;;16.50;99.90;;;;;;10199476;29;21570;-61
2022/06/20 13:06:18;;;;;;;1.17;0.10;;;16.50;99.90;;;;;;10209652;28;20044;-62
2022/06/20 13:11:53;;;;;;;1.10;0.15;;;16.40;99.90;;;;;;10211015;29;20122;-62
2022/06/20 13:17:10;;;;;;;0.85;0.15;;;16.10;99.90;;;;;;10211561;29;20055;-61
2022/06/20 13:22:45;;;;;;;0.00;0.00;;;15.90;99.90;;;;;;10206249;29;20067;-61
2022/06/20 13:27:49;;;;;;;0.25;0.10;;;15.80;99.90;;;;;;10136344;29;20672;-61
2022/06/20 13:33:12;;;;;;;1.25;0.10;;;15.80;99.90;;;;;;10212925;29;20518;-62
2022/06/20 13:38:23;;;;;;;0.28;0.20;;;15.80;99.90;;;;;;10211192;28;20047;-61
2022/06/20 13:43:43;;;;;;;0.17;0.10;;;15.90;99.90;;;;;;10208595;29;20066;-62
2022/06/20 13:49:14;;;;;;;0.20;0.10;;;16.00;99.90;;;;;;10207419;29;20487;-62
2022/06/20 13:54:24;;;;;;;0.10;0.10;;;16.20;99.90;;;;;;10207224;29;20050;-62
2022/06/20 13:59:39;;;;;;;0.20;0.20;;;16.30;99.90;;;;;;10207945;28;20059;-62
2022/06/20 14:04:40;;;;;;;1.05;0.20;;;16.40;99.90;;;;;;10179806;29;20062;-62
2022/06/20 14:09:48;;;;;;;0.15;0.10;;;16.40;99.90;;;;;;10208391;29;20532;-62
2022/06/20 14:14:58;;;;;;;0.38;0.13;;;16.40;99.90;;;;;;10212144;29;20047;-62
2022/06/20 14:20:18;;;;;;;0.50;0.20;;;16.40;99.90;;;;;;10204561;28;20125;-61
2022/06/20 14:25:30;;;;;;;0.43;0.20;;;16.40;99.90;;;;;;10204981;29;20495;-61
2022/06/20 14:30:37;;;;;;;0.32;0.10;;;16.30;99.90;;;;;;10210070;29;20087;-64
2022/06/20 14:35:52;;;;;;;0.30;0.15;;;16.30;99.90;;;;;;10208183;29;20053;-64
2022/06/20 14:41:03;;;;;;;1.85;0.20;;;16.10;99.90;;;;;;10204746;29;20620;-64
2022/06/20 14:46:20;;;;;;;1.20;0.10;;;16.20;99.90;;;;;;10206252;29;20063;-63
2022/06/20 14:51:40;;;;;;;0.90;0.20;;;16.30;99.90;;;;;;10205206;29;20070;-67
2022/06/20 14:57:00;;;;;;;2.50;0.63;;;16.70;99.90;;;;;;10207716;28;20051;-66
2022/06/20 15:02:41;;;;;;;0.50;0.17;;;17.10;99.90;;;;;;10210300;28;20138;-66
2022/06/20 15:07:50;;;;;;;2.20;0.25;;;17.60;99.90;;;;;;10132822;28;20059;-66
2022/06/20 15:12:58;;;;;;;2.13;0.40;;;18.00;99.90;;;;;;10208410;28;21217;-66
2022/06/20 15:18:21;;;;;;;7.78;0.40;;;18.20;99.90;;;;;;10213347;28;20109;-66
2022/06/20 15:23:45;;;;;;;5.20;0.30;;;19.30;99.90;;;;;;10217095;28;20063;-64
2022/06/20 15:29:03;;;;;;;2.05;0.40;;;20.20;99.90;;;;;;10208864;28;20129;-64
2022/06/20 15:34:31;;;;;;;1.75;0.30;;;20.70;99.90;;;;;;10207649;28;20055;-64
2022/06/20 15:39:55;;;;;;;1.73;0.32;;;20.40;99.90;;;;;;10210744;29;20052;-63
2022/06/20 15:45:07;;;;;;;3.45;0.60;;;20.20;99.90;;;;;;10211813;29;20074;-63
2022/06/20 15:50:12;;;;;;;2.65;0.40;;;20.30;99.90;;;;;;10210663;29;20048;-64
2022/06/20 15:55:48;;;;;;;3.03;0.60;;;21.00;99.90;;;;;;10218168;29;20422;-66
2022/06/20 16:01:11;;;;;;;1.47;0.40;;;21.30;99.70;;;;;;10211992;28;20058;-65
2022/06/20 16:06:37;;;;;;;2.85;0.52;;;21.90;97.70;;;;;;10211492;29;20234;-66
2022/06/20 16:11:46;;;;;;;3.37;0.60;;;21.60;95.50;;;;;;10210239;29;20498;-67
2022/06/20 16:16:50;;;;;;;1.77;0.60;;;22.30;94.60;;;;;;10209654;29;20062;-66
2022/06/20 16:21:59;;;;;;;2.22;0.57;;;21.70;95.70;;;;;;10218796;29;20061;-65
2022/06/20 16:27:01;;;;;;;3.47;0.50;;;22.00;94.80;;;;;;10209227;29;20067;-65
2022/06/20 16:32:28;;;;;;;0.95;0.50;;;22.50;94.60;;;;;;10191352;29;20295;-66
2022/06/20 16:37:31;;;;;;;2.75;0.50;;;22.90;93.60;;;;;;10205881;29;20059;-65
2022/06/20 16:42:48;;;;;;;3.45;0.70;;;22.70;92.80;;;;;;10212741;28;20063;-65
2022/06/20 16:48:08;;;;;;;2.88;0.43;;;23.10;92.00;;;;;;10204648;29;20565;-65
2022/06/20 16:53:20;;;;;;;3.13;0.70;;;23.80;91.90;;;;;;10202986;29;20052;-66
2022/06/20 16:58:30;;;;;;;3.53;0.40;;;24.30;90.80;;;;;;10202435;28;20118;-65
2022/06/20 17:03:58;;;;;;;1.10;0.55;;;24.60;89.30;;;;;;10211896;29;20511;-65
2022/06/20 17:09:17;;;;;;;1.85;0.50;;;24.00;87.40;;;;;;10208600;29;20077;-66
2022/06/20 17:14:40;;;;;;;2.92;0.47;;;24.20;87.20;;;;;;10209441;29;20549;-66
2022/06/20 17:19:56;;;;;;;2.55;0.60;;;24.40;88.40;;;;;;10210634;28;20058;-65
2022/06/20 17:25:36;;;;;;;2.03;0.40;;;24.00;87.20;;;;;;10192301;29;20579;-67
2022/06/20 17:31:03;;;;;;;1.88;0.60;;;23.80;90.20;;;;;;10194167;29;20058;-66
2022/06/20 17:36:24;;;;;;;2.53;0.60;;;23.50;88.50;;;;;;10210687;29;20051;-66
2022/06/20 17:41:52;;;;;;;3.03;0.50;;;23.90;88.30;;;;;;10210056;29;20064;-65
2022/06/20 17:47:26;;;;;;;1.52;0.40;;;23.50;88.50;;;;;;10209462;28;20066;-65
2022/06/20 17:52:49;;;;;;;6.75;0.70;;;24.00;89.00;;;;;;10193937;28;20081;-66
2022/06/20 17:58:27;;;;;;;2.70;0.68;;;24.00;88.10;;;;;;10207249;28;20470;-67
2022/06/20 18:03:34;;;;;;;1.90;0.50;;;23.80;87.50;;;;;;10208568;29;20111;-67
2022/06/20 18:08:51;;;;;;;3.30;0.52;;;23.80;88.20;;;;;;10205696;28;20090;-67
2022/06/20 18:14:07;;;;;;;3.38;0.45;;;24.20;87.60;;;;;;10195951;29;20146;-62
2022/06/20 18:19:40;;;;;;;3.50;0.77;;;24.20;86.60;;;;;;10214469;29;20057;-62
2022/06/20 18:24:54;;;;;;;2.60;0.80;;;22.80;89.90;;;;;;10215071;29;20062;-61
2022/06/20 18:29:58;;;;;;;3.22;1.00;;;22.40;92.60;;;;;;10216889;29;20043;-62
2022/06/20 18:35:05;;;;;;;1.95;1.23;;;21.90;93.70;;;;;;10218191;29;20055;-61
2022/06/20 18:40:19;;;;;;;2.13;0.85;;;21.40;95.00;;;;;;10211500;28;20451;-61
2022/06/20 18:45:32;;;;;;;2.10;0.90;;;21.00;95.80;;;;;;10204786;29;20137;-61
2022/06/20 18:50:59;;;;;;;4.07;0.80;;;20.60;96.60;;;;;;10206905;29;20052;-61
2022/06/20 18:56:12;;;;;;;;;;;20.20;98.20;;;;;;10204102;29;20063;-60
2022/06/20 19:01:23;;;;;;;3.75;1.00;;;19.90;99.90;;;;;;10212634;28;19930;-61
2022/06/20 19:06:38;;;;;;;4.43;1.10;;;19.60;99.90;;;;;;10211848;28;20066;-61
2022/06/20 19:12:00;;;;;;;1.92;0.90;;;19.30;99.90;;;;;;10206851;29;20111;-63
2022/06/20 19:17:14;;;;;;;2.20;0.88;;;19.20;99.90;;;;;;10208523;29;20063;-61
2022/06/20 19:22:36;;;;;;;2.13;1.00;;;18.90;99.90;;;;;;10204237;28;20422;-61
2022/06/20 19:28:15;;;;;;;4.03;1.10;;;18.50;99.90;;;;;;10212514;29;20074;-60
2022/06/20 19:33:22;;;;;;;4.25;1.08;;;18.40;99.90;;;;;;10208275;29;20063;-60
2022/06/20 19:38:34;;;;;;;3.67;1.23;;;18.10;99.90;;;;;;10211013;28;20063;-61
2022/06/20 19:43:40;;;;;;;6.82;2.17;;;17.90;99.90;;;;;;10209715;29;20118;-60
2022/06/20 19:48:44;;;;;;;4.82;2.08;;;17.80;99.90;;;;;;10206931;29;20115;-61
2022/06/20 19:53:50;;;;;;;3.33;1.73;;;17.70;99.90;;;;;;10210572;29;20098;-60
2022/06/20 19:58:55;;;;;;;5.20;2.35;;;17.50;99.90;;;;;;10212652;28;20102;-61
2022/06/20 20:04:22;;;;;;;5.00;2.05;;;17.40;99.90;;;;;;10209482;29;20051;-60
2022/06/20 20:09:24;;;;;;;9.77;3.53;;;17.20;99.90;;;;;;10205431;29;20066;-60
2022/06/20 20:14:26;;;;;;;4.57;2.67;;;17.10;99.90;;;;;;10199399;28;20059;-60
2022/06/20 20:19:43;;;;;;;5.20;3.10;;;17.00;99.90;;;;;;10213704;28;20123;-59
2022/06/20 20:25:26;;;;;;;3.55;2.17;;;16.90;99.90;;;;;;10209584;29;20106;-59
2022/06/20 20:30:50;;;;;;;7.00;2.20;;;16.70;99.90;;;;;;10204214;29;20070;-60
2022/06/20 20:36:22;;;;;;;4.05;2.60;;;16.50;99.90;;;;;;10209890;28;20099;-60
2022/06/20 20:41:33;;;;;;;8.13;2.20;;;16.40;99.90;;;;;;10209182;29;20054;-60
2022/06/20 20:47:15;;;;;;;9.63;2.95;;;16.20;99.90;;;;;;10206123;29;20071;-58
2022/06/20 20:52:22;;;;;;;5.63;3.15;;;16.20;99.90;;;;;;10164964;29;20055;-60
2022/06/20 20:57:27;;;;;;;8.30;3.15;;;16.10;99.90;;;;;;10216812;28;20126;-59
2022/06/20 21:02:32;;;;;;;6.28;3.33;;;16.00;99.90;;;;;;10214684;28;20410;-59
2022/06/20 21:07:39;;;;;;;8.30;3.70;;;15.90;99.90;;;;;;10213786;29;20051;-59
2022/06/20 21:12:51;;;;;;;5.90;2.58;;;15.90;99.90;;;;;;10210871;29;20458;-59
2022/06/20 21:18:05;;;;;;;5.95;3.22;;;15.70;99.90;;;;;;10212490;29;20052;-59
2022/06/20 21:23:07;;;;;;;5.50;3.20;;;15.70;99.90;;;;;;10213064;29;20130;-59
2022/06/20 21:28:08;;;;;;;7.72;3.45;;;15.60;99.90;;;;;;10209963;29;20407;-59
2022/06/20 21:33:11;;;;;;;6.10;3.55;;;15.40;99.90;;;;;;10211360;29;20577;-58
2022/06/20 21:38:17;;;;;;;6.22;3.90;;;15.40;99.90;;;;;;10214756;29;20055;-59
2022/06/20 21:43:23;;;;;;;5.60;3.42;;;15.20;99.90;;;;;;10210716;29;20450;-58
2022/06/20 21:48:31;;;;;;;4.80;3.30;;;15.00;99.90;;;;;;10214798;29;20062;-59
2022/06/20 21:53:40;;;;;;;11.52;4.40;;;14.90;99.90;;;;;;10204141;29;20055;-58
2022/06/20 21:58:51;;;;;;;9.60;3.75;;;14.70;99.90;;;;;;10211254;28;20067;-59
2022/06/20 22:03:55;;;;;;;4.72;3.90;;;14.50;99.90;;;;;;10208404;29;20056;-58
2022/06/20 22:08:57;;;;;;;9.43;4.18;;;14.50;99.90;;;;;;10206615;29;20050;-57
2022/06/20 22:14:05;;;;;;;5.07;3.63;;;14.40;99.90;;;;;;10208164;29;20059;-58
2022/06/20 22:19:15;;;;;;;7.45;3.50;;;14.40;99.90;;;;;;10208986;28;20575;-58
2022/06/20 22:24:23;;;;;;;7.57;3.95;;;14.30;99.90;;;;;;10212177;29;20083;-58
2022/06/20 22:30:21;;;;;;;4.93;3.80;;;14.20;99.90;;;;;;10211096;28;20090;-58
2022/06/20 22:35:31;;;;;;;8.85;3.90;;;14.10;99.90;;;;;;10214445;28;20055;-58
2022/06/20 22:40:33;;;;;;;11.77;5.55;;;14.00;99.90;;;;;;10213659;28;20055;-58
2022/06/20 22:45:42;;;;;;;7.28;4.93;;;14.00;99.90;;;;;;10208993;28;20506;-58
2022/06/20 22:50:47;;;;;;;5.45;3.22;;;13.80;99.90;;;;;;10208716;29;20102;-57
2022/06/20 22:56:04;;;;;;;6.35;3.95;;;13.70;99.90;;;;;;10209558;28;20061;-58
2022/06/20 23:01:15;;;;;;;6.67;3.80;;;13.60;99.90;;;;;;10207186;28;20105;-58
2022/06/20 23:06:19;;;;;;;7.50;3.70;;;13.40;99.90;;;;;;10212148;29;20055;-57
2022/06/20 23:11:22;;;;;;;5.30;3.47;;;13.40;99.90;;;;;;10192786;29;20063;-58
2022/06/20 23:21:47;;;;;;;8.20;4.18;;;13.20;99.90;;;;;;10206061;29;20049;-58
2022/06/20 23:26:49;;;;;;;8.90;3.90;;;13.10;99.90;;;;;;10209384;28;20048;-57
2022/06/20 23:31:54;;;;;;;8.13;3.90;;;13.00;99.90;;;;;;10209534;29;20058;-57
2022/06/20 23:36:56;;;;;;;5.07;4.15;;;13.00;99.90;;;;;;10200597;29;20082;-58
2022/06/20 23:41:58;;;;;;;6.63;3.65;;;12.90;99.90;;;;;;10209538;28;20055;-58
2022/06/20 23:46:59;;;;;;;6.47;4.05;;;12.70;99.90;;;;;;10207791;28;20047;-58
2022/06/20 23:52:02;;;;;;;8.45;4.50;;;12.70;99.90;;;;;;10213557;28;20063;-58
2022/06/20 23:57:04;;;;;;;6.78;3.80;;;12.60;99.90;;;;;;10214355;28;20114;-58
